createdAt,value
2022-10-08T00:01:05.630Z,11.74
2022-10-08T00:03:37.791Z,11.76
2022-10-08T00:06:21.980Z,11.78
2022-10-08T00:08:52.067Z,11.76
2022-10-08T00:11:21.767Z,11.67
2022-10-08T00:13:50.751Z,11.62
2022-10-08T00:16:24.867Z,11.61
2022-10-08T00:18:53.888Z,11.59
2022-10-08T00:21:24.043Z,11.51
2022-10-08T00:23:52.536Z,11.39
2022-10-08T00:26:23.861Z,11.38
2022-10-08T00:28:52.858Z,11.32
2022-10-08T00:31:26.044Z,11.20
2022-10-08T00:33:56.652Z,11.24
2022-10-08T00:36:26.210Z,11.12
2022-10-08T00:38:57.618Z,11.18
2022-10-08T00:41:26.740Z,11.13
2022-10-08T00:43:58.792Z,11.20
2022-10-08T00:46:49.285Z,11.17
2022-10-08T00:49:18.308Z,11.03
2022-10-08T00:51:50.043Z,10.96
2022-10-08T00:54:19.012Z,10.99
2022-10-08T00:56:48.280Z,10.87
2022-10-08T00:59:15.534Z,10.87
2022-10-08T01:01:44.073Z,10.88
2022-10-08T01:04:12.888Z,10.88
2022-10-08T01:07:10.358Z,10.84
2022-10-08T01:09:49.091Z,10.76
2022-10-08T01:12:37.591Z,10.65
2022-10-08T01:15:28.825Z,10.50
2022-10-08T01:18:37.237Z,10.50
2022-10-08T01:21:13.478Z,10.58
2022-10-08T01:24:53.272Z,10.49
2022-10-08T01:27:27.846Z,10.42
2022-10-08T01:29:55.468Z,10.39
2022-10-08T01:32:27.922Z,10.28
2022-10-08T01:35:00.277Z,10.31
2022-10-08T01:37:32.115Z,10.31
2022-10-08T01:40:00.854Z,10.34
2022-10-08T01:42:28.847Z,10.42
2022-10-08T01:45:00.530Z,10.43
2022-10-08T01:47:29.146Z,10.29
2022-10-08T01:50:09.934Z,10.22
2022-10-08T01:52:41.091Z,10.19
2022-10-08T01:55:14.528Z,10.09
2022-10-08T01:57:42.124Z,10.10
2022-10-08T02:00:12.098Z,10.12
2022-10-08T02:02:39.316Z,10.08
2022-10-08T02:05:06.956Z,10.03
2022-10-08T02:07:37.282Z,10.05
2022-10-08T02:10:10.642Z,10.15
2022-10-08T02:12:40.387Z,9.99
2022-10-08T02:15:11.864Z,9.95
2022-10-08T02:18:12.047Z,9.91
2022-10-08T02:20:51.038Z,9.95
2022-10-08T02:23:24.274Z,9.90
2022-10-08T02:26:08.554Z,9.86
2022-10-08T02:28:49.994Z,9.83
2022-10-08T02:31:41.468Z,9.82
2022-10-08T02:34:15.178Z,9.83
2022-10-08T02:36:44.398Z,9.87
2022-10-08T02:39:13.297Z,9.93
2022-10-08T02:41:44.200Z,9.88
2022-10-08T02:44:23.606Z,9.91
2022-10-08T02:46:53.044Z,9.86
2022-10-08T02:49:24.527Z,9.89
2022-10-08T02:51:53.755Z,9.77
2022-10-08T02:54:23.315Z,9.90
2022-10-08T02:57:12.080Z,9.90
2022-10-08T02:59:39.698Z,9.89
2022-10-08T03:02:06.973Z,9.74
2022-10-08T03:04:39.718Z,9.75
2022-10-08T03:07:07.127Z,9.79
2022-10-08T03:09:37.667Z,9.78
2022-10-08T03:12:05.293Z,9.66
2022-10-08T03:14:35.409Z,9.59
2022-10-08T03:17:02.465Z,9.53
2022-10-08T03:19:29.370Z,9.52
2022-10-08T03:21:56.903Z,9.47
2022-10-08T03:24:23.887Z,9.45
2022-10-08T03:26:52.931Z,9.52
2022-10-08T03:29:20.360Z,9.37
2022-10-08T03:31:50.698Z,9.32
2022-10-08T03:34:17.906Z,9.34
2022-10-08T03:36:44.860Z,9.37
2022-10-08T03:39:11.778Z,9.25
2022-10-08T03:41:38.725Z,9.32
2022-10-08T03:44:09.334Z,9.36
2022-10-08T03:46:36.257Z,9.27
2022-10-08T03:49:03.627Z,9.20
2022-10-08T03:51:30.567Z,9.19
2022-10-08T03:53:57.731Z,9.25
2022-10-08T03:56:25.117Z,9.29
2022-10-08T03:58:56.910Z,9.19
2022-10-08T04:01:24.483Z,9.15
2022-10-08T04:03:51.710Z,9.19
2022-10-08T04:06:18.681Z,9.25
2022-10-08T04:08:45.593Z,9.16
2022-10-08T04:11:14.598Z,9.20
2022-10-08T04:13:41.967Z,9.17
2022-10-08T04:16:12.671Z,9.25
2022-10-08T04:18:39.988Z,9.26
2022-10-08T04:21:09.569Z,9.22
2022-10-08T04:23:37.591Z,9.18
2022-10-08T04:26:04.918Z,9.20
2022-10-08T04:28:36.206Z,9.32
2022-10-08T04:31:07.762Z,9.34
2022-10-08T04:33:35.379Z,9.28
2022-10-08T04:36:02.281Z,9.24
2022-10-08T04:38:29.410Z,9.18
2022-10-08T04:41:09.998Z,9.18
2022-10-08T04:43:37.890Z,9.01
2022-10-08T04:46:05.624Z,8.92
2022-10-08T04:48:32.525Z,8.90
2022-10-08T04:51:02.188Z,9.03
2022-10-08T04:53:29.392Z,8.90
2022-10-08T04:55:57.229Z,8.90
2022-10-08T04:58:25.904Z,8.87
2022-10-08T05:00:52.696Z,8.84
2022-10-08T05:03:19.776Z,8.80
2022-10-08T05:05:46.882Z,8.73
2022-10-08T05:08:13.792Z,8.72
2022-10-08T05:10:48.287Z,8.74
2022-10-08T05:13:15.381Z,8.62
2022-10-08T05:15:42.325Z,8.58
2022-10-08T05:18:09.116Z,8.57
2022-10-08T05:20:36.758Z,8.67
2022-10-08T05:23:03.802Z,8.58
2022-10-08T05:25:32.218Z,8.54
2022-10-08T05:27:59.421Z,8.54
2022-10-08T05:30:26.398Z,8.64
2022-10-08T05:32:53.344Z,8.77
2022-10-08T05:35:20.809Z,8.68
2022-10-08T05:37:47.707Z,8.71
2022-10-08T05:40:14.707Z,8.64
2022-10-08T05:42:41.767Z,8.53
2022-10-08T05:45:08.995Z,8.59
2022-10-08T05:47:35.809Z,8.46
2022-10-08T05:50:03.075Z,8.56
2022-10-08T05:52:29.956Z,8.59
2022-10-08T05:54:56.655Z,8.58
2022-10-08T05:57:23.620Z,8.54
2022-10-08T05:59:50.364Z,8.50
2022-10-08T06:02:17.265Z,8.44
2022-10-08T06:04:44.118Z,8.59
2022-10-08T06:07:10.927Z,8.52
2022-10-08T06:09:37.682Z,8.48
2022-10-08T06:12:04.704Z,8.54
2022-10-08T06:14:31.636Z,8.50
2022-10-08T06:16:58.433Z,8.57
2022-10-08T06:19:25.267Z,8.60
2022-10-08T06:21:52.075Z,8.64
2022-10-08T06:24:19.051Z,8.89
2022-10-08T06:26:46.202Z,9.07
2022-10-08T06:29:16.582Z,9.14
2022-10-08T06:31:44.189Z,9.40
2022-10-08T06:34:11.088Z,9.30
2022-10-08T06:36:38.138Z,9.39
2022-10-08T06:39:08.331Z,9.39
2022-10-08T06:41:35.408Z,9.38
2022-10-08T06:44:04.330Z,9.41
2022-10-08T06:46:32.715Z,9.44
2022-10-08T06:49:00.984Z,9.59
2022-10-08T06:51:28.780Z,9.62
2022-10-08T06:54:00.339Z,9.76
2022-10-08T06:56:29.861Z,9.78
2022-10-08T06:58:57.324Z,9.78
2022-10-08T07:01:33.159Z,9.85
2022-10-08T07:04:01.938Z,9.88
2022-10-08T07:06:29.365Z,9.94
2022-10-08T07:08:58.771Z,10.01
2022-10-08T07:11:26.960Z,9.98
2022-10-08T07:13:57.472Z,9.87
2022-10-08T07:16:26.388Z,10.04
2022-10-08T07:18:54.960Z,10.11
2022-10-08T07:21:22.452Z,10.15
2022-10-08T07:23:50.161Z,10.19
2022-10-08T07:26:22.164Z,10.38
2022-10-08T07:29:08.824Z,10.52
2022-10-08T07:31:36.902Z,10.59
2022-10-08T07:34:10.424Z,10.70
2022-10-08T07:36:38.072Z,10.82
2022-10-08T07:39:07.788Z,11.02
2022-10-08T07:41:35.098Z,11.15
2022-10-08T07:44:03.228Z,11.31
2022-10-08T07:46:32.007Z,11.39
2022-10-08T07:48:59.502Z,11.47
2022-10-08T07:51:27.367Z,11.51
2022-10-08T07:53:56.766Z,11.60
2022-10-08T07:56:27.086Z,11.90
2022-10-08T07:58:53.886Z,12.18
2022-10-08T08:01:28.866Z,12.43
2022-10-08T08:03:58.001Z,12.62
2022-10-08T08:06:24.983Z,12.75
2022-10-08T08:08:52.171Z,12.81
2022-10-08T08:11:21.360Z,12.90
2022-10-08T08:13:48.415Z,12.91
2022-10-08T08:16:18.173Z,12.96
2022-10-08T08:18:50.159Z,12.96
2022-10-08T08:21:24.165Z,13.03
2022-10-08T08:23:53.590Z,13.04
2022-10-08T08:26:33.193Z,13.13
2022-10-08T08:29:01.843Z,13.21
2022-10-08T08:31:34.058Z,13.18
2022-10-08T08:34:05.849Z,13.28
2022-10-08T08:36:37.733Z,13.33
2022-10-08T08:39:05.664Z,13.34
2022-10-08T08:41:53.843Z,13.36
2022-10-08T08:44:50.676Z,13.42
2022-10-08T08:47:25.721Z,13.51
2022-10-08T08:49:56.710Z,13.63
2022-10-08T08:52:25.849Z,13.62
2022-10-08T08:54:53.656Z,13.69
2022-10-08T08:57:43.142Z,13.80
2022-10-08T09:00:24.353Z,13.85
2022-10-08T09:03:13.754Z,13.90
2022-10-08T09:05:42.740Z,13.94
2022-10-08T09:08:15.721Z,13.91
2022-10-08T09:11:15.873Z,13.90
2022-10-08T09:13:49.047Z,13.94
2022-10-08T09:16:16.447Z,13.96
2022-10-08T09:18:47.980Z,14.02
2022-10-08T09:21:15.107Z,14.04
2022-10-08T09:23:42.802Z,13.95
2022-10-08T09:26:22.698Z,13.98
2022-10-08T09:28:57.538Z,14.00
2022-10-08T09:31:27.962Z,14.03
2022-10-08T09:34:00.474Z,13.84
2022-10-08T09:36:36.923Z,13.74
2022-10-08T09:39:15.479Z,13.84
2022-10-08T09:41:42.515Z,13.84
2022-10-08T09:44:21.222Z,13.85
2022-10-08T09:46:48.995Z,13.74
2022-10-08T09:49:36.017Z,13.84
2022-10-08T09:52:08.171Z,13.79
2022-10-08T09:54:37.956Z,13.78
2022-10-08T09:57:05.263Z,13.74
2022-10-08T09:59:36.529Z,13.74
2022-10-08T10:02:07.938Z,13.76
2022-10-08T10:04:37.049Z,13.75
2022-10-08T10:07:04.872Z,13.64
2022-10-08T10:09:45.252Z,13.64
2022-10-08T10:12:32.775Z,13.70
2022-10-08T10:15:05.709Z,13.77
2022-10-08T10:18:16.141Z,13.67
2022-10-08T10:20:46.594Z,13.66
2022-10-08T10:23:35.959Z,13.66
2022-10-08T10:26:13.890Z,13.77
2022-10-08T10:28:45.443Z,13.83
2022-10-08T10:31:25.646Z,13.90
2022-10-08T10:34:06.977Z,13.89
2022-10-08T10:36:41.047Z,13.94
2022-10-08T10:39:27.098Z,13.99
2022-10-08T10:42:10.934Z,13.81
2022-10-08T10:44:50.267Z,13.81
2022-10-08T10:47:19.762Z,14.00
2022-10-08T10:49:46.729Z,13.96
2022-10-08T10:52:55.415Z,13.96
2022-10-08T10:55:33.335Z,13.82
2022-10-08T10:58:22.597Z,13.66
2022-10-08T11:01:27.978Z,13.84
2022-10-08T11:04:18.073Z,13.77
2022-10-08T11:07:10.849Z,13.77
2022-10-08T11:10:03.892Z,13.82
2022-10-08T11:13:04.703Z,13.98
2022-10-08T11:15:42.555Z,13.95
2022-10-08T11:18:25.299Z,13.98
2022-10-08T11:21:36.503Z,13.93
2022-10-08T11:25:00.405Z,13.98
2022-10-08T11:28:14.261Z,14.09
2022-10-08T11:31:24.949Z,14.08
2022-10-08T11:33:52.706Z,14.08
2022-10-08T11:36:30.600Z,14.14
2022-10-08T11:39:24.534Z,14.23
2022-10-08T11:41:58.096Z,14.36
2022-10-08T11:44:27.197Z,14.23
2022-10-08T11:46:54.002Z,14.36
2022-10-08T11:49:45.753Z,14.23
2022-10-08T11:52:14.260Z,14.38
2022-10-08T11:54:42.154Z,14.46
2022-10-08T11:57:18.416Z,14.51
2022-10-08T12:00:08.125Z,14.56
2022-10-08T12:02:42.086Z,14.55
2022-10-08T12:05:38.530Z,14.65
2022-10-08T12:08:06.588Z,14.70
2022-10-08T12:10:37.063Z,14.69
2022-10-08T12:13:25.739Z,14.85
2022-10-08T12:15:54.324Z,15.13
2022-10-08T12:18:26.040Z,15.30
2022-10-08T12:21:38.248Z,15.42
2022-10-08T12:24:40.081Z,15.43
2022-10-08T12:27:40.461Z,15.23
2022-10-08T12:30:11.261Z,15.42
2022-10-08T12:33:04.837Z,15.29
2022-10-08T12:35:35.130Z,15.29
2022-10-08T12:38:20.430Z,15.37
2022-10-08T12:41:23.159Z,15.46
2022-10-08T12:44:30.410Z,15.60
2022-10-08T12:47:42.222Z,15.79
2022-10-08T12:50:28.499Z,15.94
2022-10-08T12:52:55.312Z,15.94
2022-10-08T12:55:23.751Z,15.99
2022-10-08T12:57:51.436Z,15.91
2022-10-08T13:00:23.774Z,16.16
2022-10-08T13:03:05.326Z,16.25
2022-10-08T13:05:37.635Z,16.34
2022-10-08T13:08:37.348Z,16.44
2022-10-08T13:11:15.323Z,16.42
2022-10-08T13:13:50.552Z,16.39
2022-10-08T13:16:25.451Z,16.40
2022-10-08T13:19:00.763Z,16.24
2022-10-08T13:21:35.785Z,16.27
2022-10-08T13:24:11.780Z,16.31
2022-10-08T13:26:48.716Z,16.35
2022-10-08T13:29:41.555Z,16.35
2022-10-08T13:32:38.646Z,16.36
2022-10-08T13:35:06.397Z,16.38
2022-10-08T13:37:42.523Z,16.47
2022-10-08T13:40:12.069Z,16.61
2022-10-08T13:42:43.842Z,16.71
2022-10-08T13:45:37.083Z,16.95
2022-10-08T13:48:04.521Z,16.80
2022-10-08T13:50:31.545Z,16.89
2022-10-08T13:53:00.512Z,16.82
2022-10-08T13:55:32.409Z,16.67
2022-10-08T13:58:02.215Z,16.40
2022-10-08T14:00:31.295Z,16.39
2022-10-08T14:02:58.438Z,16.45
2022-10-08T14:05:28.178Z,16.40
2022-10-08T14:08:05.052Z,16.59
2022-10-08T14:10:32.963Z,16.64
2022-10-08T14:12:59.933Z,16.43
2022-10-08T14:15:26.614Z,16.57
2022-10-08T14:17:53.725Z,16.47
2022-10-08T14:20:24.114Z,16.16
2022-10-08T14:22:51.783Z,16.03
2022-10-08T14:25:22.417Z,15.91
2022-10-08T14:27:49.763Z,15.60
2022-10-08T14:30:16.986Z,15.54
2022-10-08T14:32:44.275Z,15.41
2022-10-08T14:35:12.318Z,15.39
2022-10-08T14:37:39.191Z,15.31
2022-10-08T14:40:08.508Z,15.16
2022-10-08T14:42:35.332Z,15.12
2022-10-08T14:45:02.166Z,15.35
2022-10-08T14:47:29.009Z,15.42
2022-10-08T14:49:55.829Z,15.39
2022-10-08T14:52:22.678Z,15.41
2022-10-08T14:54:49.444Z,15.62
2022-10-08T14:57:16.541Z,15.68
2022-10-08T14:59:43.444Z,15.61
2022-10-08T15:02:11.997Z,15.46
2022-10-08T15:04:39.116Z,15.29
2022-10-08T15:07:05.835Z,15.15
2022-10-08T15:09:32.631Z,15.30
2022-10-08T15:11:59.468Z,15.25
2022-10-08T15:14:26.197Z,15.28
2022-10-08T15:16:53.359Z,15.38
2022-10-08T15:19:23.769Z,15.15
2022-10-08T15:21:51.291Z,15.23
2022-10-08T15:24:18.364Z,15.20
2022-10-08T15:26:45.287Z,15.07
2022-10-08T15:29:12.144Z,15.10
2022-10-08T15:31:39.061Z,15.33
2022-10-08T15:34:06.072Z,15.40
2022-10-08T15:36:36.450Z,15.43
2022-10-08T15:39:15.254Z,15.39
2022-10-08T15:41:49.614Z,15.38
2022-10-08T15:44:24.167Z,15.31
2022-10-08T15:47:04.749Z,15.40
2022-10-08T15:49:49.607Z,15.21
2022-10-08T15:52:19.503Z,15.22
2022-10-08T15:54:46.882Z,15.11
2022-10-08T15:57:15.822Z,15.06
2022-10-08T15:59:42.818Z,15.09
2022-10-08T16:02:16.610Z,14.97
2022-10-08T16:04:46.234Z,14.85
2022-10-08T16:07:13.075Z,14.79
2022-10-08T16:09:40.025Z,14.69
2022-10-08T16:12:06.897Z,14.62
2022-10-08T16:14:33.970Z,14.47
2022-10-08T16:17:00.908Z,14.50
2022-10-08T16:19:29.899Z,14.30
2022-10-08T16:21:58.093Z,14.32
2022-10-08T16:24:25.136Z,14.30
2022-10-08T16:26:52.386Z,14.22
2022-10-08T16:29:19.660Z,14.25
2022-10-08T16:31:47.254Z,14.17
2022-10-08T16:34:22.452Z,14.18
2022-10-08T16:36:49.798Z,14.08
2022-10-08T16:39:19.350Z,13.90
2022-10-08T16:41:46.825Z,13.76
2022-10-08T16:44:16.871Z,13.72
2022-10-08T16:46:48.469Z,13.74
2022-10-08T16:49:24.669Z,13.37
2022-10-08T16:51:58.294Z,13.19
2022-10-08T16:54:25.636Z,13.11
2022-10-08T16:56:52.727Z,12.93
2022-10-08T16:59:22.434Z,12.92
2022-10-08T17:01:53.024Z,12.96
2022-10-08T17:04:22.117Z,13.13
2022-10-08T17:06:49.243Z,13.13
2022-10-08T17:09:16.193Z,12.84
2022-10-08T17:11:43.204Z,12.70
2022-10-08T17:14:11.947Z,12.54
2022-10-08T17:16:40.150Z,12.62
2022-10-08T17:19:07.156Z,12.41
2022-10-08T17:21:35.317Z,12.41
2022-10-08T17:24:03.044Z,12.32
2022-10-08T17:26:31.264Z,12.27
2022-10-08T17:29:02.698Z,12.09
2022-10-08T17:31:29.706Z,12.00
2022-10-08T17:33:56.679Z,12.25
2022-10-08T17:36:29.141Z,12.12
2022-10-08T17:38:58.467Z,11.89
2022-10-08T17:41:27.447Z,12.01
2022-10-08T17:43:58.231Z,11.92
2022-10-08T17:46:27.294Z,11.75
2022-10-08T17:48:54.663Z,11.54
2022-10-08T17:51:24.516Z,11.52
2022-10-08T17:54:05.553Z,11.34
2022-10-08T17:56:32.719Z,11.25
2022-10-08T17:59:00.556Z,11.23
2022-10-08T18:01:29.506Z,11.12
2022-10-08T18:04:02.054Z,11.06
2022-10-08T18:06:30.164Z,11.12
2022-10-08T18:09:02.330Z,11.06
2022-10-08T18:11:31.088Z,10.96
2022-10-08T18:13:58.392Z,10.94
2022-10-08T18:16:25.720Z,10.93
2022-10-08T18:18:53.138Z,10.84
2022-10-08T18:21:20.925Z,10.70
2022-10-08T18:23:48.630Z,10.73
2022-10-08T18:26:23.439Z,10.63
2022-10-08T18:28:53.937Z,10.60
2022-10-08T18:31:22.681Z,10.51
2022-10-08T18:33:52.205Z,10.56
2022-10-08T18:36:21.356Z,10.42
2022-10-08T18:38:53.085Z,10.50
2022-10-08T18:41:21.744Z,10.25
2022-10-08T18:43:49.440Z,10.26
2022-10-08T18:46:18.381Z,10.30
2022-10-08T18:48:45.582Z,10.27
2022-10-08T18:51:15.362Z,10.09
2022-10-08T18:53:43.007Z,10.17
2022-10-08T18:56:12.881Z,10.12
2022-10-08T18:58:39.745Z,10.00
2022-10-08T19:01:07.553Z,9.96
2022-10-08T19:03:34.596Z,10.03
2022-10-08T19:06:01.462Z,9.97
2022-10-08T19:08:29.046Z,10.00
2022-10-08T19:10:55.922Z,10.06
2022-10-08T19:13:22.919Z,10.01
2022-10-08T19:15:49.977Z,9.92
2022-10-08T19:18:16.818Z,9.81
2022-10-08T19:20:43.486Z,9.83
2022-10-08T19:23:10.310Z,9.77
2022-10-08T19:25:37.061Z,9.71
2022-10-08T19:28:04.217Z,9.78
2022-10-08T19:30:34.350Z,9.72
2022-10-08T19:33:01.424Z,9.80
2022-10-08T19:35:28.359Z,9.77
2022-10-08T19:37:55.419Z,9.81
2022-10-08T19:40:22.229Z,9.58
2022-10-08T19:42:49.382Z,9.53
2022-10-08T19:45:16.762Z,9.54
2022-10-08T19:47:43.503Z,9.54
2022-10-08T19:50:10.535Z,9.53
2022-10-08T19:52:37.689Z,9.59
2022-10-08T19:55:05.040Z,9.62
2022-10-08T19:57:32.030Z,9.52
2022-10-08T19:59:58.976Z,9.53
2022-10-08T20:02:25.876Z,9.60
2022-10-08T20:04:52.747Z,9.56
2022-10-08T20:07:20.068Z,9.39
2022-10-08T20:09:47.748Z,9.45
2022-10-08T20:12:14.555Z,9.32
2022-10-08T20:14:41.549Z,9.27
2022-10-08T20:17:08.288Z,9.31
2022-10-08T20:19:35.509Z,9.34
2022-10-08T20:22:02.499Z,9.42
2022-10-08T20:24:29.411Z,9.34
2022-10-08T20:26:56.329Z,9.04
2022-10-08T20:29:27.472Z,8.84
2022-10-08T20:31:57.762Z,8.84
2022-10-08T20:34:31.654Z,8.84
2022-10-08T20:37:01.707Z,8.55
2022-10-08T20:39:29.159Z,8.50
2022-10-08T20:41:56.079Z,8.68
2022-10-08T20:44:23.238Z,8.71
2022-10-08T20:46:50.935Z,8.68
2022-10-08T20:49:18.032Z,8.63
2022-10-08T20:51:44.786Z,8.73
2022-10-08T20:54:14.558Z,8.75
2022-10-08T20:56:42.293Z,8.85
2022-10-08T20:59:11.484Z,8.68
2022-10-08T21:01:38.962Z,8.69
2022-10-08T21:04:07.065Z,8.69
2022-10-08T21:06:40.012Z,8.56
2022-10-08T21:09:07.266Z,8.42
2022-10-08T21:11:34.705Z,8.54
2022-10-08T21:14:03.683Z,8.42
2022-10-08T21:16:39.618Z,8.42
2022-10-08T21:19:11.326Z,8.50
2022-10-08T21:21:39.077Z,8.34
2022-10-08T21:24:06.263Z,8.45
2022-10-08T21:26:42.713Z,8.35
2022-10-08T21:29:11.854Z,8.11
2022-10-08T21:31:39.547Z,8.15
2022-10-08T21:34:07.061Z,8.11
2022-10-08T21:36:36.691Z,8.19
2022-10-08T21:39:05.481Z,8.03
2022-10-08T21:41:35.301Z,8.04
2022-10-08T21:44:04.801Z,7.95
2022-10-08T21:46:33.434Z,7.79
2022-10-08T21:49:08.883Z,7.83
2022-10-08T21:51:36.312Z,7.95
2022-10-08T21:54:05.236Z,8.04
2022-10-08T21:56:34.359Z,7.98
2022-10-08T21:59:02.977Z,7.97
2022-10-08T22:01:32.225Z,7.95
2022-10-08T22:04:01.996Z,7.88
2022-10-08T22:06:30.385Z,7.84
2022-10-08T22:08:57.686Z,7.84
2022-10-08T22:11:25.161Z,7.76
2022-10-08T22:13:52.202Z,7.75
2022-10-08T22:16:20.862Z,7.57
2022-10-08T22:18:47.728Z,7.66
2022-10-08T22:21:17.665Z,7.61
2022-10-08T22:23:44.532Z,7.70
2022-10-08T22:26:14.237Z,7.68
2022-10-08T22:28:41.635Z,7.67
2022-10-08T22:31:10.294Z,7.73
2022-10-08T22:33:37.256Z,7.51
2022-10-08T22:36:18.929Z,7.28
2022-10-08T22:38:46.927Z,7.27
2022-10-08T22:41:21.772Z,7.09
2022-10-08T22:43:48.986Z,7.24
2022-10-08T22:46:21.497Z,7.16
2022-10-08T22:48:48.874Z,7.06
2022-10-08T22:51:20.787Z,7.07
2022-10-08T22:53:49.123Z,7.10
2022-10-08T22:56:18.828Z,7.11
2022-10-08T22:58:46.690Z,7.05
2022-10-08T23:01:15.944Z,7.03
2022-10-08T23:03:42.955Z,6.91
2022-10-08T23:06:19.750Z,6.92
2022-10-08T23:08:48.373Z,6.84
2022-10-08T23:11:16.362Z,6.94
2022-10-08T23:13:46.516Z,6.95
2022-10-08T23:16:15.298Z,6.96
2022-10-08T23:18:44.179Z,6.94
2022-10-08T23:21:16.855Z,6.83
2022-10-08T23:23:47.701Z,6.85
2022-10-08T23:26:15.120Z,6.77
2022-10-08T23:28:42.680Z,6.78
2022-10-08T23:31:15.408Z,6.74
2022-10-08T23:33:44.673Z,6.71
2022-10-08T23:36:14.238Z,6.64
2022-10-08T23:38:41.700Z,6.69
2022-10-08T23:41:10.318Z,6.71
2022-10-08T23:43:38.853Z,6.75
2022-10-08T23:46:06.807Z,6.64
2022-10-08T23:48:34.170Z,6.62
2022-10-08T23:51:01.287Z,6.61
2022-10-08T23:53:28.329Z,6.49
2022-10-08T23:55:55.003Z,6.52
2022-10-08T23:58:22.002Z,6.47
